sensor_id;sensor_type;location;lat;lon;timestamp;P1;durP1;ratioP1;P2;durP2;ratioP2
73599;SDS011;61877;48.246;9.220;2024-02-26T00:01:05;19.85;;;9.23;;
73599;SDS011;61877;48.246;9.220;2024-02-26T00:03:32;17.23;;;8.98;;
73599;SDS011;61877;48.246;9.220;2024-02-26T00:05:59;17.83;;;9.37;;
73599;SDS011;61877;48.246;9.220;2024-02-26T00:08:25;17.33;;;8.43;;
73599;SDS011;61877;48.246;9.220;2024-02-26T00:10:52;17.20;;;8.35;;
73599;SDS011;61877;48.246;9.220;2024-02-26T00:13:19;17.70;;;8.10;;
73599;SDS011;61877;48.246;9.220;2024-02-26T00:15:46;16.08;;;8.43;;
73599;SDS011;61877;48.246;9.220;2024-02-26T00:18:14;20.13;;;9.37;;
73599;SDS011;61877;48.246;9.220;2024-02-26T00:20:40;20.98;;;10.23;;
73599;SDS011;61877;48.246;9.220;2024-02-26T00:23:09;22.33;;;10.60;;
73599;SDS011;61877;48.246;9.220;2024-02-26T00:25:36;20.85;;;10.25;;
73599;SDS011;61877;48.246;9.220;2024-02-26T00:28:03;22.20;;;10.60;;
73599;SDS011;61877;48.246;9.220;2024-02-26T00:30:30;20.67;;;9.73;;
73599;SDS011;61877;48.246;9.220;2024-02-26T00:32:57;21.58;;;10.40;;
73599;SDS011;61877;48.246;9.220;2024-02-26T00:35:25;23.17;;;10.55;;
73599;SDS011;61877;48.246;9.220;2024-02-26T00:37:52;21.20;;;9.35;;
73599;SDS011;61877;48.246;9.220;2024-02-26T00:40:18;18.50;;;9.10;;
73599;SDS011;61877;48.246;9.220;2024-02-26T00:42:45;20.67;;;8.90;;
73599;SDS011;61877;48.246;9.220;2024-02-26T00:45:11;18.80;;;8.40;;
73599;SDS011;61877;48.246;9.220;2024-02-26T00:47:38;16.38;;;7.60;;
73599;SDS011;61877;48.246;9.220;2024-02-26T00:50:05;15.73;;;7.15;;
73599;SDS011;61877;48.246;9.220;2024-02-26T00:52:34;13.70;;;6.68;;
73599;SDS011;61877;48.246;9.220;2024-02-26T00:55:01;14.33;;;6.90;;
73599;SDS011;61877;48.246;9.220;2024-02-26T00:57:29;14.20;;;6.75;;
73599;SDS011;61877;48.246;9.220;2024-02-26T00:59:55;13.52;;;6.90;;
73599;SDS011;61877;48.246;9.220;2024-02-26T01:02:22;13.18;;;5.97;;
73599;SDS011;61877;48.246;9.220;2024-02-26T01:04:48;14.38;;;6.25;;
73599;SDS011;61877;48.246;9.220;2024-02-26T01:07:15;13.77;;;6.50;;
73599;SDS011;61877;48.246;9.220;2024-02-26T01:09:43;12.35;;;6.18;;
73599;SDS011;61877;48.246;9.220;2024-02-26T01:12:10;15.13;;;6.70;;
73599;SDS011;61877;48.246;9.220;2024-02-26T01:14:36;13.77;;;6.78;;
73599;SDS011;61877;48.246;9.220;2024-02-26T01:17:03;14.30;;;6.55;;
73599;SDS011;61877;48.246;9.220;2024-02-26T01:19:30;12.57;;;5.90;;
73599;SDS011;61877;48.246;9.220;2024-02-26T01:21:57;13.15;;;6.10;;
73599;SDS011;61877;48.246;9.220;2024-02-26T01:24:23;13.18;;;6.40;;
73599;SDS011;61877;48.246;9.220;2024-02-26T01:26:51;13.05;;;6.22;;
73599;SDS011;61877;48.246;9.220;2024-02-26T01:29:18;14.10;;;6.88;;
73599;SDS011;61877;48.246;9.220;2024-02-26T01:31:44;14.77;;;6.90;;
73599;SDS011;61877;48.246;9.220;2024-02-26T01:34:11;15.70;;;7.30;;
73599;SDS011;61877;48.246;9.220;2024-02-26T01:36:38;16.38;;;7.45;;
73599;SDS011;61877;48.246;9.220;2024-02-26T01:39:05;15.70;;;7.72;;
73599;SDS011;61877;48.246;9.220;2024-02-26T01:41:31;15.25;;;7.70;;
73599;SDS011;61877;48.246;9.220;2024-02-26T01:43:59;15.93;;;7.30;;
73599;SDS011;61877;48.246;9.220;2024-02-26T01:46:26;16.05;;;6.95;;
73599;SDS011;61877;48.246;9.220;2024-02-26T01:48:53;17.38;;;7.68;;
73599;SDS011;61877;48.246;9.220;2024-02-26T01:51:20;17.73;;;7.55;;
73599;SDS011;61877;48.246;9.220;2024-02-26T01:53:47;16.08;;;7.93;;
73599;SDS011;61877;48.246;9.220;2024-02-26T01:56:14;15.57;;;7.40;;
73599;SDS011;61877;48.246;9.220;2024-02-26T01:58:42;14.65;;;7.10;;
73599;SDS011;61877;48.246;9.220;2024-02-26T02:01:19;17.40;;;8.32;;
73599;SDS011;61877;48.246;9.220;2024-02-26T02:03:50;16.35;;;7.25;;
73599;SDS011;61877;48.246;9.220;2024-02-26T02:06:17;16.45;;;7.97;;
73599;SDS011;61877;48.246;9.220;2024-02-26T02:08:45;15.83;;;7.00;;
73599;SDS011;61877;48.246;9.220;2024-02-26T02:11:18;17.48;;;6.75;;
73599;SDS011;61877;48.246;9.220;2024-02-26T02:13:45;14.82;;;7.10;;
73599;SDS011;61877;48.246;9.220;2024-02-26T02:16:16;15.85;;;7.05;;
73599;SDS011;61877;48.246;9.220;2024-02-26T02:18:43;14.98;;;7.22;;
73599;SDS011;61877;48.246;9.220;2024-02-26T02:21:11;16.53;;;7.17;;
73599;SDS011;61877;48.246;9.220;2024-02-26T02:23:37;14.40;;;6.88;;
73599;SDS011;61877;48.246;9.220;2024-02-26T02:26:04;14.75;;;6.70;;
73599;SDS011;61877;48.246;9.220;2024-02-26T02:28:31;13.50;;;6.50;;
73599;SDS011;61877;48.246;9.220;2024-02-26T02:30:58;13.93;;;7.00;;
73599;SDS011;61877;48.246;9.220;2024-02-26T02:33:25;15.40;;;7.10;;
73599;SDS011;61877;48.246;9.220;2024-02-26T02:35:53;13.98;;;5.78;;
73599;SDS011;61877;48.246;9.220;2024-02-26T02:38:21;13.80;;;6.28;;
73599;SDS011;61877;48.246;9.220;2024-02-26T02:40:48;14.38;;;6.60;;
73599;SDS011;61877;48.246;9.220;2024-02-26T02:43:14;12.80;;;5.78;;
73599;SDS011;61877;48.246;9.220;2024-02-26T02:45:41;12.83;;;6.10;;
73599;SDS011;61877;48.246;9.220;2024-02-26T02:48:10;12.20;;;5.85;;
73599;SDS011;61877;48.246;9.220;2024-02-26T02:50:37;12.32;;;6.00;;
73599;SDS011;61877;48.246;9.220;2024-02-26T02:53:05;13.25;;;5.93;;
73599;SDS011;61877;48.246;9.220;2024-02-26T02:55:33;12.45;;;5.97;;
73599;SDS011;61877;48.246;9.220;2024-02-26T02:58:00;13.53;;;5.80;;
73599;SDS011;61877;48.246;9.220;2024-02-26T03:00:26;13.15;;;5.72;;
73599;SDS011;61877;48.246;9.220;2024-02-26T03:02:56;10.73;;;5.22;;
73599;SDS011;61877;48.246;9.220;2024-02-26T03:05:23;8.95;;;3.90;;
73599;SDS011;61877;48.246;9.220;2024-02-26T03:07:49;10.80;;;4.10;;
73599;SDS011;61877;48.246;9.220;2024-02-26T03:10:16;9.07;;;4.07;;
73599;SDS011;61877;48.246;9.220;2024-02-26T03:12:45;9.13;;;4.18;;
73599;SDS011;61877;48.246;9.220;2024-02-26T03:15:12;9.95;;;5.03;;
73599;SDS011;61877;48.246;9.220;2024-02-26T03:17:38;10.75;;;5.10;;
73599;SDS011;61877;48.246;9.220;2024-02-26T03:20:07;10.98;;;5.18;;
73599;SDS011;61877;48.246;9.220;2024-02-26T03:22:35;12.23;;;5.10;;
73599;SDS011;61877;48.246;9.220;2024-02-26T03:25:02;11.00;;;4.53;;
73599;SDS011;61877;48.246;9.220;2024-02-26T03:27:28;11.23;;;4.97;;
73599;SDS011;61877;48.246;9.220;2024-02-26T03:29:56;11.27;;;5.38;;
73599;SDS011;61877;48.246;9.220;2024-02-26T03:35:08;12.47;;;5.00;;
73599;SDS011;61877;48.246;9.220;2024-02-26T03:37:38;11.77;;;4.88;;
73599;SDS011;61877;48.246;9.220;2024-02-26T03:40:06;12.00;;;5.60;;
73599;SDS011;61877;48.246;9.220;2024-02-26T03:42:33;12.27;;;5.38;;
73599;SDS011;61877;48.246;9.220;2024-02-26T03:45:02;10.50;;;5.22;;
73599;SDS011;61877;48.246;9.220;2024-02-26T03:47:29;11.03;;;5.20;;
73599;SDS011;61877;48.246;9.220;2024-02-26T03:49:58;10.05;;;4.82;;
73599;SDS011;61877;48.246;9.220;2024-02-26T03:52:28;10.77;;;4.78;;
73599;SDS011;61877;48.246;9.220;2024-02-26T03:54:54;9.82;;;4.60;;
73599;SDS011;61877;48.246;9.220;2024-02-26T03:57:22;11.00;;;4.82;;
73599;SDS011;61877;48.246;9.220;2024-02-26T03:59:49;10.27;;;4.40;;
73599;SDS011;61877;48.246;9.220;2024-02-26T04:02:19;9.70;;;4.03;;
73599;SDS011;61877;48.246;9.220;2024-02-26T04:04:48;11.20;;;4.30;;
73599;SDS011;61877;48.246;9.220;2024-02-26T04:07:15;8.82;;;3.85;;
73599;SDS011;61877;48.246;9.220;2024-02-26T04:09:42;8.77;;;4.10;;
73599;SDS011;61877;48.246;9.220;2024-02-26T04:12:09;11.30;;;6.53;;
73599;SDS011;61877;48.246;9.220;2024-02-26T04:14:36;9.48;;;4.03;;
73599;SDS011;61877;48.246;9.220;2024-02-26T04:17:02;9.07;;;4.13;;
73599;SDS011;61877;48.246;9.220;2024-02-26T04:19:31;9.65;;;3.95;;
73599;SDS011;61877;48.246;9.220;2024-02-26T04:21:57;9.50;;;4.03;;
73599;SDS011;61877;48.246;9.220;2024-02-26T04:24:24;9.23;;;3.83;;
73599;SDS011;61877;48.246;9.220;2024-02-26T04:26:51;8.88;;;3.70;;
73599;SDS011;61877;48.246;9.220;2024-02-26T04:29:18;9.32;;;3.88;;
73599;SDS011;61877;48.246;9.220;2024-02-26T04:31:44;8.60;;;3.83;;
73599;SDS011;61877;48.246;9.220;2024-02-26T04:34:11;8.70;;;3.75;;
73599;SDS011;61877;48.246;9.220;2024-02-26T04:36:41;8.10;;;3.70;;
73599;SDS011;61877;48.246;9.220;2024-02-26T04:39:08;8.65;;;3.60;;
73599;SDS011;61877;48.246;9.220;2024-02-26T04:41:35;9.65;;;3.85;;
73599;SDS011;61877;48.246;9.220;2024-02-26T04:44:02;9.00;;;3.70;;
73599;SDS011;61877;48.246;9.220;2024-02-26T04:46:29;8.77;;;3.92;;
73599;SDS011;61877;48.246;9.220;2024-02-26T04:48:58;8.87;;;3.50;;
73599;SDS011;61877;48.246;9.220;2024-02-26T04:51:25;7.53;;;3.65;;
73599;SDS011;61877;48.246;9.220;2024-02-26T04:53:56;9.05;;;4.10;;
73599;SDS011;61877;48.246;9.220;2024-02-26T04:56:32;13.15;;;3.80;;
73599;SDS011;61877;48.246;9.220;2024-02-26T04:58:59;9.45;;;3.58;;
73599;SDS011;61877;48.246;9.220;2024-02-26T05:01:26;8.87;;;3.87;;
73599;SDS011;61877;48.246;9.220;2024-02-26T05:03:53;9.35;;;3.60;;
73599;SDS011;61877;48.246;9.220;2024-02-26T05:06:20;8.55;;;3.90;;
73599;SDS011;61877;48.246;9.220;2024-02-26T05:08:47;8.40;;;3.80;;
73599;SDS011;61877;48.246;9.220;2024-02-26T05:11:18;9.35;;;4.45;;
73599;SDS011;61877;48.246;9.220;2024-02-26T05:13:45;10.00;;;4.27;;
73599;SDS011;61877;48.246;9.220;2024-02-26T05:16:13;10.25;;;4.55;;
73599;SDS011;61877;48.246;9.220;2024-02-26T05:18:43;9.40;;;4.65;;
73599;SDS011;61877;48.246;9.220;2024-02-26T05:21:10;8.77;;;3.80;;
73599;SDS011;61877;48.246;9.220;2024-02-26T05:23:36;9.18;;;4.10;;
73599;SDS011;61877;48.246;9.220;2024-02-26T05:26:06;8.63;;;3.93;;
73599;SDS011;61877;48.246;9.220;2024-02-26T05:28:38;8.57;;;4.00;;
73599;SDS011;61877;48.246;9.220;2024-02-26T05:31:05;9.38;;;3.50;;
73599;SDS011;61877;48.246;9.220;2024-02-26T05:33:32;8.65;;;3.92;;
73599;SDS011;61877;48.246;9.220;2024-02-26T05:36:03;11.35;;;5.00;;
73599;SDS011;61877;48.246;9.220;2024-02-26T05:38:30;10.40;;;4.63;;
73599;SDS011;61877;48.246;9.220;2024-02-26T05:40:57;17.08;;;7.63;;
73599;SDS011;61877;48.246;9.220;2024-02-26T05:43:26;19.52;;;8.70;;
73599;SDS011;61877;48.246;9.220;2024-02-26T05:45:57;13.15;;;6.40;;
73599;SDS011;61877;48.246;9.220;2024-02-26T05:48:24;14.07;;;6.35;;
73599;SDS011;61877;48.246;9.220;2024-02-26T05:50:51;14.20;;;5.93;;
73599;SDS011;61877;48.246;9.220;2024-02-26T05:53:20;12.98;;;5.85;;
73599;SDS011;61877;48.246;9.220;2024-02-26T05:55:47;13.60;;;5.65;;
73599;SDS011;61877;48.246;9.220;2024-02-26T05:58:13;10.65;;;4.28;;
73599;SDS011;61877;48.246;9.220;2024-02-26T06:00:40;10.73;;;4.65;;
73599;SDS011;61877;48.246;9.220;2024-02-26T06:03:11;8.40;;;3.70;;
73599;SDS011;61877;48.246;9.220;2024-02-26T06:05:38;9.95;;;4.03;;
73599;SDS011;61877;48.246;9.220;2024-02-26T06:08:05;9.43;;;4.13;;
73599;SDS011;61877;48.246;9.220;2024-02-26T06:10:32;9.82;;;4.05;;
73599;SDS011;61877;48.246;9.220;2024-02-26T06:12:59;9.35;;;4.45;;
73599;SDS011;61877;48.246;9.220;2024-02-26T06:15:26;10.00;;;4.23;;
73599;SDS011;61877;48.246;9.220;2024-02-26T06:17:52;9.45;;;3.97;;
73599;SDS011;61877;48.246;9.220;2024-02-26T06:20:21;9.52;;;4.18;;
73599;SDS011;61877;48.246;9.220;2024-02-26T06:22:47;7.88;;;3.72;;
73599;SDS011;61877;48.246;9.220;2024-02-26T06:25:17;7.80;;;3.40;;
73599;SDS011;61877;48.246;9.220;2024-02-26T06:27:45;9.50;;;3.80;;
73599;SDS011;61877;48.246;9.220;2024-02-26T06:30:12;8.90;;;3.50;;
73599;SDS011;61877;48.246;9.220;2024-02-26T06:32:40;8.20;;;3.35;;
73599;SDS011;61877;48.246;9.220;2024-02-26T06:35:10;10.52;;;3.28;;
73599;SDS011;61877;48.246;9.220;2024-02-26T06:37:38;8.75;;;3.83;;
73599;SDS011;61877;48.246;9.220;2024-02-26T06:40:05;14.60;;;3.13;;
73599;SDS011;61877;48.246;9.220;2024-02-26T06:42:33;9.38;;;2.80;;
73599;SDS011;61877;48.246;9.220;2024-02-26T06:45:00;10.13;;;3.30;;
73599;SDS011;61877;48.246;9.220;2024-02-26T06:47:27;10.25;;;3.33;;
73599;SDS011;61877;48.246;9.220;2024-02-26T06:49:53;10.00;;;3.97;;
73599;SDS011;61877;48.246;9.220;2024-02-26T06:52:20;8.00;;;3.33;;
73599;SDS011;61877;48.246;9.220;2024-02-26T06:54:49;8.77;;;3.58;;
73599;SDS011;61877;48.246;9.220;2024-02-26T06:57:26;8.88;;;4.30;;
73599;SDS011;61877;48.246;9.220;2024-02-26T06:59:54;9.70;;;4.05;;
73599;SDS011;61877;48.246;9.220;2024-02-26T07:02:21;8.50;;;4.20;;
73599;SDS011;61877;48.246;9.220;2024-02-26T07:04:48;9.67;;;4.00;;
73599;SDS011;61877;48.246;9.220;2024-02-26T07:07:14;9.60;;;3.75;;
73599;SDS011;61877;48.246;9.220;2024-02-26T07:09:41;7.50;;;3.47;;
73599;SDS011;61877;48.246;9.220;2024-02-26T07:12:09;8.95;;;3.95;;
73599;SDS011;61877;48.246;9.220;2024-02-26T07:14:37;7.63;;;3.80;;
73599;SDS011;61877;48.246;9.220;2024-02-26T07:17:04;9.87;;;3.90;;
73599;SDS011;61877;48.246;9.220;2024-02-26T07:19:30;11.60;;;5.60;;
73599;SDS011;61877;48.246;9.220;2024-02-26T07:21:57;16.15;;;6.10;;
73599;SDS011;61877;48.246;9.220;2024-02-26T07:24:24;11.85;;;5.25;;
73599;SDS011;61877;48.246;9.220;2024-02-26T07:26:50;11.88;;;5.50;;
73599;SDS011;61877;48.246;9.220;2024-02-26T07:29:18;9.83;;;4.57;;
73599;SDS011;61877;48.246;9.220;2024-02-26T07:31:45;11.70;;;4.65;;
73599;SDS011;61877;48.246;9.220;2024-02-26T07:34:12;10.05;;;4.30;;
73599;SDS011;61877;48.246;9.220;2024-02-26T07:36:42;9.55;;;3.63;;
73599;SDS011;61877;48.246;9.220;2024-02-26T07:39:10;8.48;;;4.03;;
73599;SDS011;61877;48.246;9.220;2024-02-26T07:41:37;8.07;;;3.60;;
73599;SDS011;61877;48.246;9.220;2024-02-26T07:44:06;10.32;;;4.30;;
73599;SDS011;61877;48.246;9.220;2024-02-26T07:46:34;9.55;;;4.55;;
73599;SDS011;61877;48.246;9.220;2024-02-26T07:49:00;9.88;;;3.75;;
73599;SDS011;61877;48.246;9.220;2024-02-26T07:51:27;10.10;;;4.68;;
73599;SDS011;61877;48.246;9.220;2024-02-26T07:53:54;11.87;;;5.20;;
73599;SDS011;61877;48.246;9.220;2024-02-26T07:56:21;12.07;;;5.82;;
73599;SDS011;61877;48.246;9.220;2024-02-26T07:58:47;10.25;;;4.85;;
73599;SDS011;61877;48.246;9.220;2024-02-26T08:01:14;11.85;;;5.82;;
73599;SDS011;61877;48.246;9.220;2024-02-26T08:03:42;11.25;;;5.60;;
73599;SDS011;61877;48.246;9.220;2024-02-26T08:06:08;11.73;;;5.60;;
73599;SDS011;61877;48.246;9.220;2024-02-26T08:08:35;11.20;;;5.18;;
73599;SDS011;61877;48.246;9.220;2024-02-26T08:11:03;12.10;;;5.50;;
73599;SDS011;61877;48.246;9.220;2024-02-26T08:13:30;12.82;;;5.40;;
73599;SDS011;61877;48.246;9.220;2024-02-26T08:15:56;11.63;;;5.40;;
73599;SDS011;61877;48.246;9.220;2024-02-26T08:18:23;12.17;;;5.97;;
73599;SDS011;61877;48.246;9.220;2024-02-26T08:20:51;13.27;;;6.38;;
73599;SDS011;61877;48.246;9.220;2024-02-26T08:23:18;13.60;;;6.70;;
73599;SDS011;61877;48.246;9.220;2024-02-26T08:25:45;12.55;;;5.97;;
73599;SDS011;61877;48.246;9.220;2024-02-26T08:28:13;13.60;;;6.00;;
73599;SDS011;61877;48.246;9.220;2024-02-26T08:30:40;12.30;;;5.60;;
73599;SDS011;61877;48.246;9.220;2024-02-26T08:33:10;10.75;;;4.82;;
73599;SDS011;61877;48.246;9.220;2024-02-26T08:35:37;10.70;;;5.57;;
73599;SDS011;61877;48.246;9.220;2024-02-26T08:38:05;10.38;;;4.90;;
73599;SDS011;61877;48.246;9.220;2024-02-26T08:40:32;12.30;;;4.82;;
73599;SDS011;61877;48.246;9.220;2024-02-26T08:42:58;10.40;;;4.43;;
73599;SDS011;61877;48.246;9.220;2024-02-26T08:45:25;11.20;;;4.80;;
73599;SDS011;61877;48.246;9.220;2024-02-26T09:15:05;10.50;;;4.45;;
73599;SDS011;61877;48.246;9.220;2024-02-26T09:20:30;10.95;;;4.57;;
73599;SDS011;61877;48.246;9.220;2024-02-26T09:22:59;9.80;;;3.97;;
73599;SDS011;61877;48.246;9.220;2024-02-26T09:25:42;14.13;;;5.63;;
73599;SDS011;61877;48.246;9.220;2024-02-26T09:28:09;13.32;;;5.65;;
73599;SDS011;61877;48.246;9.220;2024-02-26T09:30:38;11.30;;;4.90;;
73599;SDS011;61877;48.246;9.220;2024-02-26T09:33:04;9.45;;;3.97;;
73599;SDS011;61877;48.246;9.220;2024-02-26T09:35:31;9.73;;;4.00;;
73599;SDS011;61877;48.246;9.220;2024-02-26T09:38:01;9.90;;;3.67;;
73599;SDS011;61877;48.246;9.220;2024-02-26T09:40:28;10.23;;;4.22;;
73599;SDS011;61877;48.246;9.220;2024-02-26T09:42:58;10.25;;;4.07;;
73599;SDS011;61877;48.246;9.220;2024-02-26T09:45:25;10.55;;;4.35;;
73599;SDS011;61877;48.246;9.220;2024-02-26T09:47:56;9.50;;;3.67;;
73599;SDS011;61877;48.246;9.220;2024-02-26T09:50:23;7.75;;;2.90;;
73599;SDS011;61877;48.246;9.220;2024-02-26T09:52:56;8.00;;;3.45;;
73599;SDS011;61877;48.246;9.220;2024-02-26T09:55:53;8.10;;;3.22;;
73599;SDS011;61877;48.246;9.220;2024-02-26T09:58:21;7.70;;;3.33;;
73599;SDS011;61877;48.246;9.220;2024-02-26T10:00:51;7.87;;;3.00;;
73599;SDS011;61877;48.246;9.220;2024-02-26T10:03:24;7.63;;;3.08;;
73599;SDS011;61877;48.246;9.220;2024-02-26T10:06:04;7.50;;;2.70;;
73599;SDS011;61877;48.246;9.220;2024-02-26T10:08:33;7.85;;;2.63;;
73599;SDS011;61877;48.246;9.220;2024-02-26T10:11:04;6.30;;;2.45;;
73599;SDS011;61877;48.246;9.220;2024-02-26T10:13:37;6.60;;;2.20;;
73599;SDS011;61877;48.246;9.220;2024-02-26T10:16:19;6.95;;;2.60;;
73599;SDS011;61877;48.246;9.220;2024-02-26T10:18:56;8.60;;;2.50;;
73599;SDS011;61877;48.246;9.220;2024-02-26T10:21:32;6.00;;;1.90;;
73599;SDS011;61877;48.246;9.220;2024-02-26T10:24:06;4.97;;;1.55;;
73599;SDS011;61877;48.246;9.220;2024-02-26T10:26:45;4.93;;;1.33;;
73599;SDS011;61877;48.246;9.220;2024-02-26T10:29:12;6.13;;;1.38;;
73599;SDS011;61877;48.246;9.220;2024-02-26T10:31:41;5.60;;;1.60;;
73599;SDS011;61877;48.246;9.220;2024-02-26T10:34:09;5.88;;;1.52;;
73599;SDS011;61877;48.246;9.220;2024-02-26T10:36:36;5.55;;;1.20;;
73599;SDS011;61877;48.246;9.220;2024-02-26T10:39:18;4.87;;;1.20;;
73599;SDS011;61877;48.246;9.220;2024-02-26T10:41:44;4.95;;;1.38;;
73599;SDS011;61877;48.246;9.220;2024-02-26T10:44:11;5.03;;;1.40;;
73599;SDS011;61877;48.246;9.220;2024-02-26T10:46:43;5.72;;;1.30;;
73599;SDS011;61877;48.246;9.220;2024-02-26T10:49:14;4.65;;;1.20;;
73599;SDS011;61877;48.246;9.220;2024-02-26T10:51:43;4.40;;;1.23;;
73599;SDS011;61877;48.246;9.220;2024-02-26T10:54:12;4.60;;;1.10;;
73599;SDS011;61877;48.246;9.220;2024-02-26T10:56:41;4.95;;;1.30;;
73599;SDS011;61877;48.246;9.220;2024-02-26T10:59:11;5.65;;;1.30;;
73599;SDS011;61877;48.246;9.220;2024-02-26T11:01:38;5.82;;;1.73;;
73599;SDS011;61877;48.246;9.220;2024-02-26T11:04:06;4.87;;;1.20;;
73599;SDS011;61877;48.246;9.220;2024-02-26T11:06:37;4.47;;;1.15;;
73599;SDS011;61877;48.246;9.220;2024-02-26T11:09:06;5.63;;;1.50;;
73599;SDS011;61877;48.246;9.220;2024-02-26T11:11:37;4.90;;;1.20;;
73599;SDS011;61877;48.246;9.220;2024-02-26T11:14:03;5.55;;;1.48;;
73599;SDS011;61877;48.246;9.220;2024-02-26T11:16:31;6.13;;;1.60;;
73599;SDS011;61877;48.246;9.220;2024-02-26T11:19:04;5.15;;;1.50;;
73599;SDS011;61877;48.246;9.220;2024-02-26T11:21:35;6.55;;;1.60;;
73599;SDS011;61877;48.246;9.220;2024-02-26T11:24:05;5.30;;;1.33;;
73599;SDS011;61877;48.246;9.220;2024-02-26T11:26:36;5.10;;;1.60;;
73599;SDS011;61877;48.246;9.220;2024-02-26T11:29:08;4.90;;;1.20;;
73599;SDS011;61877;48.246;9.220;2024-02-26T11:31:38;4.80;;;1.40;;
73599;SDS011;61877;48.246;9.220;2024-02-26T11:34:06;6.25;;;2.13;;
73599;SDS011;61877;48.246;9.220;2024-02-26T11:36:34;5.10;;;1.50;;
73599;SDS011;61877;48.246;9.220;2024-02-26T11:39:02;5.80;;;1.50;;
73599;SDS011;61877;48.246;9.220;2024-02-26T11:41:30;6.03;;;1.27;;
73599;SDS011;61877;48.246;9.220;2024-02-26T11:44:00;5.15;;;1.30;;
73599;SDS011;61877;48.246;9.220;2024-02-26T11:46:28;6.53;;;1.48;;
73599;SDS011;61877;48.246;9.220;2024-02-26T11:48:56;5.07;;;1.10;;
73599;SDS011;61877;48.246;9.220;2024-02-26T11:51:25;4.80;;;1.38;;
73599;SDS011;61877;48.246;9.220;2024-02-26T11:53:52;5.63;;;2.03;;
73599;SDS011;61877;48.246;9.220;2024-02-26T11:56:22;6.30;;;1.73;;
73599;SDS011;61877;48.246;9.220;2024-02-26T11:59:02;6.80;;;1.70;;
73599;SDS011;61877;48.246;9.220;2024-02-26T12:01:41;6.13;;;1.60;;
73599;SDS011;61877;48.246;9.220;2024-02-26T12:04:13;5.88;;;1.60;;
73599;SDS011;61877;48.246;9.220;2024-02-26T12:06:42;7.87;;;1.50;;
73599;SDS011;61877;48.246;9.220;2024-02-26T12:09:10;5.00;;;1.58;;
73599;SDS011;61877;48.246;9.220;2024-02-26T12:11:38;5.20;;;1.67;;
73599;SDS011;61877;48.246;9.220;2024-02-26T12:14:05;5.97;;;1.67;;
73599;SDS011;61877;48.246;9.220;2024-02-26T12:16:35;6.00;;;1.70;;
73599;SDS011;61877;48.246;9.220;2024-02-26T12:19:03;6.30;;;1.43;;
73599;SDS011;61877;48.246;9.220;2024-02-26T12:21:32;5.07;;;1.40;;
73599;SDS011;61877;48.246;9.220;2024-02-26T12:24:06;5.38;;;1.45;;
73599;SDS011;61877;48.246;9.220;2024-02-26T12:26:36;5.95;;;1.60;;
73599;SDS011;61877;48.246;9.220;2024-02-26T12:29:04;5.00;;;1.45;;
73599;SDS011;61877;48.246;9.220;2024-02-26T12:31:31;6.60;;;1.80;;
73599;SDS011;61877;48.246;9.220;2024-02-26T12:33:59;5.63;;;1.65;;
73599;SDS011;61877;48.246;9.220;2024-02-26T12:36:26;6.45;;;1.90;;
73599;SDS011;61877;48.246;9.220;2024-02-26T12:38:53;5.50;;;1.40;;
73599;SDS011;61877;48.246;9.220;2024-02-26T12:41:20;5.68;;;1.30;;
73599;SDS011;61877;48.246;9.220;2024-02-26T12:43:50;5.50;;;1.30;;
73599;SDS011;61877;48.246;9.220;2024-02-26T12:46:18;4.80;;;1.23;;
73599;SDS011;61877;48.246;9.220;2024-02-26T12:48:46;5.25;;;1.45;;
73599;SDS011;61877;48.246;9.220;2024-02-26T12:51:14;4.80;;;1.20;;
73599;SDS011;61877;48.246;9.220;2024-02-26T12:53:42;4.68;;;1.33;;
73599;SDS011;61877;48.246;9.220;2024-02-26T12:56:10;4.70;;;1.10;;
73599;SDS011;61877;48.246;9.220;2024-02-26T12:58:37;6.85;;;1.63;;
73599;SDS011;61877;48.246;9.220;2024-02-26T13:01:06;6.13;;;1.80;;
73599;SDS011;61877;48.246;9.220;2024-02-26T13:03:34;5.13;;;1.60;;
73599;SDS011;61877;48.246;9.220;2024-02-26T13:06:02;5.38;;;1.50;;
73599;SDS011;61877;48.246;9.220;2024-02-26T13:08:31;6.27;;;1.20;;
73599;SDS011;61877;48.246;9.220;2024-02-26T13:10:58;5.72;;;1.60;;
73599;SDS011;61877;48.246;9.220;2024-02-26T13:13:25;5.70;;;1.60;;
73599;SDS011;61877;48.246;9.220;2024-02-26T13:16:00;5.95;;;1.50;;
73599;SDS011;61877;48.246;9.220;2024-02-26T13:18:28;5.93;;;1.50;;
73599;SDS011;61877;48.246;9.220;2024-02-26T13:21:08;7.43;;;1.70;;
73599;SDS011;61877;48.246;9.220;2024-02-26T13:23:36;5.05;;;1.20;;
73599;SDS011;61877;48.246;9.220;2024-02-26T13:26:03;5.65;;;1.40;;
73599;SDS011;61877;48.246;9.220;2024-02-26T13:28:30;5.05;;;1.33;;
73599;SDS011;61877;48.246;9.220;2024-02-26T13:30:57;5.00;;;1.30;;
73599;SDS011;61877;48.246;9.220;2024-02-26T13:33:24;5.17;;;1.30;;
73599;SDS011;61877;48.246;9.220;2024-02-26T13:35:53;5.60;;;1.10;;
73599;SDS011;61877;48.246;9.220;2024-02-26T13:38:25;4.75;;;1.38;;
73599;SDS011;61877;48.246;9.220;2024-02-26T13:40:53;4.93;;;1.10;;
73599;SDS011;61877;48.246;9.220;2024-02-26T13:43:22;6.03;;;1.20;;
73599;SDS011;61877;48.246;9.220;2024-02-26T13:45:49;4.10;;;0.87;;
73599;SDS011;61877;48.246;9.220;2024-02-26T13:48:16;4.78;;;1.40;;
73599;SDS011;61877;48.246;9.220;2024-02-26T13:50:43;5.65;;;1.70;;
73599;SDS011;61877;48.246;9.220;2024-02-26T13:53:10;5.47;;;1.40;;
73599;SDS011;61877;48.246;9.220;2024-02-26T13:55:38;5.93;;;1.70;;
73599;SDS011;61877;48.246;9.220;2024-02-26T13:58:06;5.47;;;1.43;;
73599;SDS011;61877;48.246;9.220;2024-02-26T14:00:32;5.32;;;1.40;;
73599;SDS011;61877;48.246;9.220;2024-02-26T14:02:59;6.07;;;1.50;;
73599;SDS011;61877;48.246;9.220;2024-02-26T14:05:27;6.72;;;1.80;;
73599;SDS011;61877;48.246;9.220;2024-02-26T14:07:54;4.70;;;1.30;;
73599;SDS011;61877;48.246;9.220;2024-02-26T14:10:21;5.60;;;1.30;;
73599;SDS011;61877;48.246;9.220;2024-02-26T14:12:50;5.00;;;1.48;;
73599;SDS011;61877;48.246;9.220;2024-02-26T14:15:16;6.10;;;1.60;;
73599;SDS011;61877;48.246;9.220;2024-02-26T14:17:43;5.18;;;1.45;;
73599;SDS011;61877;48.246;9.220;2024-02-26T14:20:10;6.13;;;1.83;;
73599;SDS011;61877;48.246;9.220;2024-02-26T14:22:37;5.80;;;1.50;;
73599;SDS011;61877;48.246;9.220;2024-02-26T14:25:04;6.00;;;2.00;;
73599;SDS011;61877;48.246;9.220;2024-02-26T14:27:31;6.03;;;2.10;;
73599;SDS011;61877;48.246;9.220;2024-02-26T14:29:59;7.07;;;2.72;;
73599;SDS011;61877;48.246;9.220;2024-02-26T14:32:26;7.85;;;2.22;;
73599;SDS011;61877;48.246;9.220;2024-02-26T14:34:52;6.77;;;2.20;;
73599;SDS011;61877;48.246;9.220;2024-02-26T14:37:19;6.82;;;2.30;;
73599;SDS011;61877;48.246;9.220;2024-02-26T14:39:46;6.28;;;1.98;;
73599;SDS011;61877;48.246;9.220;2024-02-26T14:42:13;5.95;;;1.50;;
73599;SDS011;61877;48.246;9.220;2024-02-26T14:44:40;6.03;;;1.80;;
73599;SDS011;61877;48.246;9.220;2024-02-26T14:47:08;5.27;;;1.60;;
73599;SDS011;61877;48.246;9.220;2024-02-26T14:49:35;6.45;;;2.00;;
73599;SDS011;61877;48.246;9.220;2024-02-26T14:52:01;5.80;;;2.05;;
73599;SDS011;61877;48.246;9.220;2024-02-26T14:54:28;5.57;;;1.88;;
73599;SDS011;61877;48.246;9.220;2024-02-26T14:56:55;6.93;;;1.55;;
73599;SDS011;61877;48.246;9.220;2024-02-26T14:59:21;4.90;;;1.43;;
73599;SDS011;61877;48.246;9.220;2024-02-26T15:01:48;4.93;;;1.20;;
73599;SDS011;61877;48.246;9.220;2024-02-26T15:04:16;5.20;;;1.48;;
73599;SDS011;61877;48.246;9.220;2024-02-26T15:06:43;4.80;;;1.30;;
73599;SDS011;61877;48.246;9.220;2024-02-26T15:09:09;7.47;;;2.17;;
73599;SDS011;61877;48.246;9.220;2024-02-26T15:11:37;5.13;;;1.40;;
73599;SDS011;61877;48.246;9.220;2024-02-26T15:14:04;6.47;;;1.90;;
73599;SDS011;61877;48.246;9.220;2024-02-26T15:16:31;5.95;;;1.67;;
73599;SDS011;61877;48.246;9.220;2024-02-26T15:18:57;5.65;;;1.70;;